METAR AND TAF INFORMATION
METAR FOR DAAT
ADDS - METARS form results

(0116 UTC 24 January 2019)
Data provider http://aviationweather.gov/metar/data/
 
METAR text: DAAT 240100Z 32005KT CAVOK 04/M17 Q1017
Conditions at: DAAT (TAMANRASSET/AGUE, DZ) observed 0100 UTC 24 January 2019
Temperature: 4.0°C (39°F)
Dewpoint: -17.0°C ( 1°F) [RH = 20%]
Pressure (altimeter): 30.03 inches Hg (1017.0 mb)
Winds: from the NW (320 degrees) at 6 MPH (5 knots; 2.6 m/s)
Visibility: 6 or more miles (10+ km)
Ceiling: ceiling and visibility are OK
Clouds: unknown
Weather: no significant weather observed at this time

METAR text: DAAT 240030Z 32006KT CAVOK 05/M17 Q1017
Conditions at: DAAT (TAMANRASSET/AGUE, DZ) observed 0030 UTC 24 January 2019
Temperature: 5.0°C (41°F)
Dewpoint: -17.0°C ( 1°F) [RH = 19%]
Pressure (altimeter): 30.03 inches Hg (1017.0 mb)
Winds: from the NW (320 degrees) at 7 MPH (6 knots; 3.1 m/s)
Visibility: 6 or more miles (10+ km)
Ceiling: ceiling and visibility are OK
Clouds: unknown
Weather: no significant weather observed at this time

Forecast for: DAAT (TAMANRASSET/AGUE, DZ)
Text: TAF DAAT 232300Z 2400/2424 06010KT CAVOK
Forecast period: 0000 to 1200 UTC 24 January 2019
Forecast type: FROM: standard forecast or significant change
Winds: from the ENE (60 degrees) at 12 MPH (10 knots; 5.1 m/s)
Visibility: 6 or more miles 10+ km)
Ceiling: unknown
Clouds: missing
Weather: NSW  (no significant weather)
Text: BECMG 2412/2415 25010KT
Forecast period: 1200 to 1700 UTC 24 January 2019
Forecast type: BECOMING: Conditions expected to become as follows by 1500 UTC 24 January 2019
Winds: from the WSW (250 degrees) at 12 MPH (10 knots; 5.1 m/s)
Visibility: 6 or more miles 10+ km)
Ceiling: unknown
Clouds: missing
Weather: NSW  (no significant weather)
Text: BECMG 2417/2420 32010KT
Forecast period: 1700 UTC 24 January 2019 to 0000 UTC 25 January 2019
Forecast type: BECOMING: Conditions expected to become as follows by 2000 UTC 24 January 2019
Winds: from the NW (320 degrees) at 12 MPH (10 knots; 5.1 m/s)
Visibility: 6 or more miles 10+ km)
Ceiling: unknown
Clouds: missing
Weather: NSW  (no significant weather)

AIRPORT MAP

RUNWAY INFORMATION
Runway 02 Runway length 11811 ft Runway width 148 ft
Runway elevation 4459 ft Runway displaced threshold 0 ft Runway heading 22
Runway 20 Runway length 11811 ft Runway width 148 ft
Runway elevation 4518 ft Runway displaced threshold 0 ft Runway heading 202
Runway 08 Runway length 10171 ft Runway width 148 ft
Runway elevation 4465 ft Runway displaced threshold 0 ft Runway heading 82
Runway 26 Runway length 10171 ft Runway width 148 ft
Runway elevation 4472 ft Runway displaced threshold 0 ft Runway heading 262

AIRPORT FREQUENCIES
Type RDO Name RDO Frequency 119.7 MHZ
Type TWR Name TWR Frequency 118.1 MHZ

AIRPORT NEAR NAVIGATION AIDS
Type NDB Name Tamanrasset Frequency 358 KHZ
Type VOR-DME Name Tamanrasset Frequency 112500 KHZ